Black Hawk, Colorado
Current Conditions -  °F | °C
As of 4:54 AM on Thursday 27 Nov 2014 (Local Time) from KBJC Reporting Station
Clear Clear  
Wind Chill: 52°   Ceiling: Unl
Heat Index: 52°   Visibility: 10mi
Dew Point: 18°   Wind: 8mph
Humidity: 26%   Direction: 230°SW
Pressure: 30.22"   Gusts: NA
Location:  39.8°N, 105.49°W
Report Text: KBJC 271154Z AUTO 23007KT 10SM CLR 11/M08 A3022 RMK AO2
Loading
Personal Weather Stations






























Interactive Weather Map New forecast layout! Learn more

10-Day Weather Forecast

Advertisements
Track Severe Weather on mobile